KP68

Eureka Airport

Nevada, USA
METAR KP68 200053Z AUTO 07004KT M02/M04 A2992 RMK AO1 SLP123 P0001 T10221039
Observed Flight Rules
Jan-20 @ 00:53 UTC (23 minutes ago)
Wind
70° at 4 knots
Temperatures Readings Precipitation
Current -2°C / 28°F
Dewpoint -4°C / 25°F
Humidity 86%
Altimeter 29.92" Hg
Pressure 1012.3 hPa
Elevation 1809
Current Rain 0.01
METAR KP68 200053Z AUTO 07004KT M02/M04 A2992 RMK AO1 SLP123 P0001 T10221039
Observed Flight Rules
Jan-20 @ 00:53 UTC
(23 minutes ago)
Wind
70° at 4 knots
Temperature Dewpoint
-2°C / 28°F -4°C / 25°F
Humidity Altimeter Pressure
86% 29.92" Hg 1012.3 hPa
Current Rain
0.01